createdAt,value
2017-10-03T00:01:05.514Z,0.70
2017-10-03T00:03:31.794Z,0.43
2017-10-03T00:05:58.093Z,0.50
2017-10-03T00:08:24.363Z,0.70
2017-10-03T00:10:50.630Z,0.50
2017-10-03T00:13:16.919Z,0.50
2017-10-03T00:15:43.193Z,0.70
2017-10-03T00:18:09.477Z,0.50
2017-10-03T00:20:35.766Z,0.50
2017-10-03T00:23:02.029Z,0.80
2017-10-03T00:25:29.315Z,0.57
2017-10-03T00:27:56.617Z,0.60
2017-10-03T00:30:22.888Z,0.57
2017-10-03T00:32:49.943Z,0.80
2017-10-03T00:35:16.991Z,0.80
2017-10-03T00:37:43.998Z,0.43
2017-10-03T00:40:10.285Z,0.60
2017-10-03T00:42:36.599Z,0.43
2017-10-03T00:45:02.910Z,0.73
2017-10-03T00:47:29.954Z,0.60
2017-10-03T00:49:56.998Z,0.60
2017-10-03T00:52:23.322Z,1.10
2017-10-03T00:54:49.609Z,0.40
2017-10-03T00:57:15.930Z,0.60
2017-10-03T00:59:42.263Z,0.60
2017-10-03T01:02:08.546Z,0.70
2017-10-03T01:04:34.834Z,0.57
2017-10-03T01:07:01.125Z,0.70
2017-10-03T01:09:27.429Z,0.50
2017-10-03T01:11:53.749Z,0.50
2017-10-03T01:14:20.049Z,0.60
2017-10-03T01:16:46.320Z,0.60
2017-10-03T01:19:13.406Z,0.50
2017-10-03T01:21:39.717Z,0.67
2017-10-03T01:24:06.750Z,0.47
2017-10-03T01:26:33.799Z,0.50
2017-10-03T01:29:00.838Z,0.50
2017-10-03T01:31:27.880Z,0.50
2017-10-03T01:33:54.209Z,0.60
2017-10-03T01:36:21.091Z,0.50
2017-10-03T01:38:47.361Z,0.53
2017-10-03T01:41:13.629Z,0.60
2017-10-03T01:43:40.662Z,0.40
2017-10-03T01:46:06.929Z,0.70
2017-10-03T01:48:33.193Z,0.50
2017-10-03T01:50:59.521Z,0.40
2017-10-03T01:53:25.811Z,0.40
2017-10-03T01:55:52.081Z,0.30
2017-10-03T01:58:19.412Z,0.40
2017-10-03T02:00:46.722Z,0.30
2017-10-03T02:03:15.975Z,0.57
2017-10-03T02:05:42.279Z,0.70
2017-10-03T02:08:08.554Z,0.47
2017-10-03T02:10:34.835Z,0.60
2017-10-03T02:13:01.142Z,0.37
2017-10-03T02:15:28.145Z,0.40
2017-10-03T02:17:54.421Z,0.50
2017-10-03T02:20:21.502Z,0.50
2017-10-03T02:22:47.785Z,0.70
2017-10-03T02:25:14.794Z,0.40
2017-10-03T02:27:42.106Z,0.30
2017-10-03T02:30:08.373Z,0.40
2017-10-03T02:32:34.641Z,0.40
2017-10-03T02:35:02.693Z,0.57
2017-10-03T02:37:28.968Z,0.40
2017-10-03T02:39:55.241Z,0.33
2017-10-03T02:42:22.565Z,0.40
2017-10-03T02:44:48.838Z,0.30
2017-10-03T02:47:15.137Z,0.30
2017-10-03T02:49:41.422Z,0.43
2017-10-03T02:52:07.706Z,0.47
2017-10-03T02:54:33.981Z,0.50
2017-10-03T02:57:01.030Z,0.40
2017-10-03T02:59:28.041Z,0.60
2017-10-03T03:01:54.326Z,0.60
2017-10-03T03:04:20.618Z,0.60
2017-10-03T03:06:46.894Z,0.50
2017-10-03T03:09:13.212Z,0.53
2017-10-03T03:11:39.502Z,0.30
2017-10-03T03:14:05.790Z,0.30
2017-10-03T03:16:32.082Z,0.37
2017-10-03T03:18:59.117Z,0.40
2017-10-03T03:21:26.141Z,0.30
2017-10-03T03:23:52.434Z,0.40
2017-10-03T03:26:18.738Z,0.40
2017-10-03T03:28:45.758Z,0.37
2017-10-03T03:31:12.046Z,0.40
2017-10-03T03:33:38.359Z,0.30
2017-10-03T03:36:04.622Z,0.33
2017-10-03T03:38:30.918Z,0.50
2017-10-03T03:40:57.228Z,0.50
2017-10-03T03:43:25.283Z,0.30
2017-10-03T03:45:52.298Z,0.40
2017-10-03T03:48:18.589Z,0.40
2017-10-03T03:50:44.878Z,0.40
2017-10-03T03:53:11.149Z,0.30
2017-10-03T03:55:37.434Z,0.37
2017-10-03T03:58:04.453Z,0.50
2017-10-03T04:00:30.722Z,0.37
2017-10-03T04:02:57.758Z,0.80
2017-10-03T04:05:24.018Z,0.70
2017-10-03T04:07:50.282Z,0.50
2017-10-03T04:10:16.570Z,0.87
2017-10-03T04:12:42.865Z,0.43
2017-10-03T04:15:09.165Z,0.50
2017-10-03T04:17:35.486Z,0.83
2017-10-03T04:20:01.813Z,0.60
2017-10-03T04:22:28.113Z,0.60
2017-10-03T04:24:56.174Z,0.53
2017-10-03T04:27:24.045Z,0.50
2017-10-03T04:29:51.074Z,0.80
2017-10-03T04:32:17.373Z,0.50
2017-10-03T04:34:43.634Z,0.67
2017-10-03T04:37:09.913Z,0.80
2017-10-03T04:39:36.231Z,0.80
2017-10-03T04:42:02.523Z,0.70
2017-10-03T04:44:28.799Z,0.80
2017-10-03T04:46:55.093Z,0.80
2017-10-03T04:49:22.122Z,0.83
2017-10-03T04:51:48.393Z,1.00
2017-10-03T04:54:15.581Z,0.80
2017-10-03T04:56:41.854Z,0.80
2017-10-03T04:59:09.886Z,0.90
2017-10-03T05:01:36.189Z,0.87
2017-10-03T05:04:02.467Z,0.77
2017-10-03T05:06:30.505Z,1.33
2017-10-03T05:08:56.824Z,0.93
2017-10-03T05:11:23.101Z,0.93
2017-10-03T05:13:50.259Z,0.50
2017-10-03T05:16:17.310Z,0.80
2017-10-03T05:18:44.326Z,1.00
2017-10-03T05:21:10.589Z,1.03
2017-10-03T05:23:36.877Z,0.70
2017-10-03T05:26:03.139Z,0.90
2017-10-03T05:28:30.169Z,0.83
2017-10-03T05:30:57.205Z,0.70
2017-10-03T05:33:23.475Z,0.90
2017-10-03T05:35:49.752Z,1.17
2017-10-03T05:38:16.046Z,1.87
2017-10-03T05:40:42.321Z,1.60
2017-10-03T05:43:08.593Z,0.80
2017-10-03T05:45:34.881Z,0.70
2017-10-03T05:48:01.181Z,0.70
2017-10-03T05:50:27.468Z,0.80
2017-10-03T05:52:54.773Z,0.90
2017-10-03T05:55:21.062Z,0.73
2017-10-03T05:57:47.326Z,1.17
2017-10-03T06:00:13.654Z,0.80
2017-10-03T06:02:39.954Z,0.77
2017-10-03T06:05:06.250Z,0.80
2017-10-03T06:07:33.285Z,0.90
2017-10-03T06:09:59.550Z,1.00
2017-10-03T06:12:25.833Z,1.00
2017-10-03T06:14:52.115Z,0.83
2017-10-03T06:17:18.396Z,0.90
2017-10-03T06:19:44.697Z,0.90
2017-10-03T06:22:11.002Z,0.60
2017-10-03T06:24:37.282Z,0.80
2017-10-03T06:27:03.554Z,0.50
2017-10-03T06:29:29.838Z,0.87
2017-10-03T06:31:56.141Z,0.60
2017-10-03T06:34:22.442Z,0.60
2017-10-03T06:36:48.745Z,0.97
2017-10-03T06:39:15.773Z,0.60
2017-10-03T06:41:42.061Z,0.90
2017-10-03T06:44:08.337Z,0.60
2017-10-03T06:46:34.745Z,0.43
2017-10-03T06:49:01.015Z,0.40
2017-10-03T06:51:29.045Z,0.40
2017-10-03T06:53:55.337Z,0.40
2017-10-03T06:56:21.619Z,0.40
2017-10-03T06:58:47.957Z,0.30
2017-10-03T07:01:14.232Z,0.30
2017-10-03T07:03:40.509Z,0.47
2017-10-03T07:06:06.841Z,0.40
2017-10-03T07:08:33.147Z,0.50
2017-10-03T07:10:59.463Z,0.20
2017-10-03T07:13:25.779Z,0.30
2017-10-03T07:15:52.049Z,0.30
2017-10-03T07:18:18.337Z,0.70
2017-10-03T07:20:44.663Z,0.53
2017-10-03T07:23:10.938Z,3.97
2017-10-03T07:25:37.270Z,1.97
2017-10-03T07:28:03.550Z,1.23
2017-10-03T07:30:29.817Z,4.80
2017-10-03T07:32:56.091Z,1.37
2017-10-03T07:35:23.125Z,0.70
2017-10-03T07:37:49.396Z,0.80
2017-10-03T07:40:15.677Z,0.80
2017-10-03T07:42:41.961Z,0.60
2017-10-03T07:45:08.237Z,0.43
2017-10-03T07:47:34.583Z,0.40
2017-10-03T07:50:02.632Z,0.77
2017-10-03T07:52:28.930Z,0.70
2017-10-03T07:54:55.200Z,0.57
2017-10-03T07:57:22.282Z,0.70
2017-10-03T07:59:49.305Z,0.67
2017-10-03T08:02:18.414Z,0.40
2017-10-03T08:04:44.711Z,0.30
2017-10-03T08:07:10.977Z,0.90
2017-10-03T08:09:37.277Z,0.77
2017-10-03T08:12:04.330Z,0.40
2017-10-03T08:14:32.349Z,0.70
2017-10-03T08:16:58.774Z,0.43
2017-10-03T08:19:26.137Z,0.57
2017-10-03T08:21:52.452Z,0.20
2017-10-03T08:24:18.754Z,0.50
2017-10-03T08:26:45.797Z,0.70
2017-10-03T08:29:12.075Z,0.60
2017-10-03T08:31:38.341Z,0.43
2017-10-03T08:34:05.381Z,0.70
2017-10-03T08:36:31.669Z,0.40
2017-10-03T08:38:57.946Z,0.20
2017-10-03T08:41:24.982Z,0.30
2017-10-03T08:43:51.253Z,0.30
2017-10-03T08:46:17.537Z,0.30
2017-10-03T08:48:43.829Z,0.30
2017-10-03T08:51:10.117Z,0.30
2017-10-03T08:53:37.129Z,0.20
2017-10-03T08:56:03.430Z,0.27
2017-10-03T08:58:29.701Z,0.40
2017-10-03T09:00:55.970Z,0.50
2017-10-03T09:03:22.582Z,0.40
2017-10-03T09:05:50.602Z,0.30
2017-10-03T09:08:16.869Z,0.20
2017-10-03T09:10:43.913Z,0.30
2017-10-03T09:13:10.179Z,0.23
2017-10-03T09:15:36.442Z,4.20
2017-10-03T09:18:02.931Z,0.90
2017-10-03T09:20:29.965Z,0.40
2017-10-03T09:22:57.991Z,0.93
2017-10-03T09:25:24.295Z,0.50
2017-10-03T09:27:50.578Z,0.40
2017-10-03T09:30:16.880Z,0.30
2017-10-03T09:32:44.164Z,0.33
2017-10-03T09:35:10.434Z,0.37
2017-10-03T09:37:36.717Z,0.30
2017-10-03T09:40:03.006Z,0.30
2017-10-03T09:42:29.301Z,0.30
2017-10-03T09:44:56.314Z,0.40
2017-10-03T09:47:22.628Z,0.30
2017-10-03T09:49:48.906Z,0.40
2017-10-03T09:52:15.937Z,0.57
2017-10-03T09:54:42.975Z,0.70
2017-10-03T09:57:09.305Z,0.60
2017-10-03T09:59:35.598Z,0.35
2017-10-03T10:02:01.889Z,0.60
2017-10-03T10:04:28.179Z,0.40
2017-10-03T10:06:54.483Z,0.40
2017-10-03T10:09:20.769Z,0.95
2017-10-03T10:11:47.793Z,1.00
2017-10-03T10:14:14.070Z,0.80
2017-10-03T10:16:40.364Z,0.50
2017-10-03T10:19:08.400Z,0.50
2017-10-03T10:21:34.671Z,0.40
2017-10-03T10:24:01.701Z,0.20
2017-10-03T10:26:27.952Z,0.40
2017-10-03T10:28:55.348Z,0.60
2017-10-03T10:31:21.654Z,0.27
2017-10-03T10:33:47.919Z,0.40
2017-10-03T10:36:14.204Z,0.30
2017-10-03T10:38:40.518Z,0.40
2017-10-03T10:41:07.561Z,0.77
2017-10-03T10:43:34.570Z,0.30
2017-10-03T10:46:00.862Z,0.30
2017-10-03T10:48:27.137Z,0.40
2017-10-03T10:50:53.393Z,0.40
2017-10-03T10:53:20.474Z,0.40
2017-10-03T10:55:46.735Z,0.30
2017-10-03T10:58:13.010Z,0.30
2017-10-03T11:00:39.334Z,0.40
2017-10-03T11:03:06.393Z,0.30
2017-10-03T11:05:32.706Z,0.30
2017-10-03T11:07:59.742Z,0.23
2017-10-03T11:10:26.038Z,0.30
2017-10-03T11:12:52.352Z,0.30
2017-10-03T11:15:19.678Z,0.30
2017-10-03T11:17:45.955Z,0.20
2017-10-03T11:20:12.245Z,0.33
2017-10-03T11:22:50.757Z,0.40
2017-10-03T11:25:17.022Z,0.30
2017-10-03T11:27:43.305Z,0.33
2017-10-03T11:30:09.605Z,0.67
2017-10-03T11:32:35.873Z,0.30
2017-10-03T11:35:02.177Z,0.30
2017-10-03T11:37:28.466Z,0.30
2017-10-03T11:39:54.738Z,0.40
2017-10-03T11:42:21.761Z,0.40
2017-10-03T11:44:48.046Z,0.40
2017-10-03T11:47:14.309Z,0.33
2017-10-03T11:49:40.590Z,0.50
2017-10-03T11:52:07.626Z,0.30
2017-10-03T11:54:34.641Z,0.57
2017-10-03T11:57:00.921Z,0.50
2017-10-03T11:59:27.225Z,0.43
2017-10-03T12:01:54.241Z,0.40
2017-10-03T12:04:20.506Z,0.40
2017-10-03T12:06:47.539Z,0.50
2017-10-03T12:09:14.550Z,0.57
2017-10-03T12:11:40.849Z,0.50
2017-10-03T12:14:07.146Z,0.60
2017-10-03T12:16:34.157Z,0.40
2017-10-03T12:19:00.470Z,0.70
2017-10-03T12:21:26.781Z,0.53
2017-10-03T12:23:53.078Z,0.40
2017-10-03T12:26:20.107Z,0.40
2017-10-03T12:28:46.393Z,0.50
2017-10-03T12:31:12.653Z,0.53
2017-10-03T12:33:38.923Z,0.60
2017-10-03T12:36:05.997Z,0.60
2017-10-03T12:38:32.270Z,0.57
2017-10-03T12:40:58.537Z,0.80
2017-10-03T12:43:24.862Z,1.13
2017-10-03T12:45:51.881Z,0.50
2017-10-03T12:48:18.158Z,0.43
2017-10-03T12:50:44.454Z,0.50
2017-10-03T12:53:10.759Z,0.67
2017-10-03T12:55:37.035Z,0.40
2017-10-03T12:58:03.325Z,0.70
2017-10-03T13:00:29.622Z,0.50
2017-10-03T13:02:55.909Z,0.47
2017-10-03T13:05:22.946Z,0.77
2017-10-03T13:07:49.963Z,0.40
2017-10-03T13:10:16.241Z,0.40
2017-10-03T13:12:43.278Z,0.50
2017-10-03T13:15:10.303Z,0.50
2017-10-03T13:17:36.562Z,0.83
2017-10-03T13:20:03.638Z,0.67
2017-10-03T13:22:29.901Z,0.70
2017-10-03T13:24:57.184Z,0.60
2017-10-03T13:27:24.210Z,0.50
2017-10-03T13:29:50.482Z,0.70
2017-10-03T13:32:16.746Z,0.50
2017-10-03T13:34:43.030Z,0.80
2017-10-03T13:37:09.297Z,0.53
2017-10-03T13:39:35.573Z,0.40
2017-10-03T13:42:02.597Z,0.60
2017-10-03T13:44:28.861Z,0.70
2017-10-03T13:46:55.152Z,0.53
2017-10-03T13:51:51.581Z,0.60
2017-10-03T13:54:17.858Z,0.70
2017-10-03T13:56:44.882Z,0.40
2017-10-03T13:59:11.170Z,0.60
2017-10-03T14:01:37.451Z,0.50
2017-10-03T14:04:04.474Z,0.70
2017-10-03T14:06:30.774Z,0.80
2017-10-03T14:08:57.062Z,0.60
2017-10-03T14:11:24.081Z,0.73
2017-10-03T14:13:50.385Z,0.80
2017-10-03T14:16:16.710Z,0.70
2017-10-03T14:18:42.976Z,0.93
2017-10-03T14:21:09.274Z,0.60
2017-10-03T14:23:35.542Z,0.70
2017-10-03T14:26:01.807Z,0.60
2017-10-03T14:28:28.127Z,0.50
2017-10-03T14:30:54.398Z,0.60
2017-10-03T14:33:21.674Z,0.70
2017-10-03T14:35:47.957Z,0.40
2017-10-03T14:38:14.221Z,0.77
2017-10-03T14:40:40.489Z,0.60
2017-10-03T14:43:07.534Z,1.00
2017-10-03T14:45:33.818Z,0.57
2017-10-03T14:48:00.091Z,0.60
2017-10-03T14:50:28.169Z,0.70
2017-10-03T14:52:54.438Z,0.57
2017-10-03T14:55:20.723Z,0.50
2017-10-03T14:57:47.757Z,0.80
2017-10-03T15:00:14.780Z,0.60
2017-10-03T15:02:41.092Z,0.63
2017-10-03T15:05:07.399Z,0.70
2017-10-03T15:07:33.686Z,0.80
2017-10-03T15:10:00.704Z,0.60
2017-10-03T15:12:26.999Z,0.90
2017-10-03T15:14:53.269Z,0.73
2017-10-03T15:17:19.539Z,0.50
2017-10-03T15:19:45.862Z,0.70
2017-10-03T15:22:12.935Z,0.60
2017-10-03T15:24:39.215Z,0.70
2017-10-03T15:27:05.513Z,0.77
2017-10-03T15:29:31.813Z,1.00
2017-10-03T15:31:58.088Z,0.70
2017-10-03T15:34:24.412Z,0.60
2017-10-03T15:36:50.693Z,0.60
2017-10-03T15:39:16.993Z,0.77
2017-10-03T15:41:44.033Z,0.73
2017-10-03T15:44:11.330Z,0.60
2017-10-03T15:46:37.622Z,0.57
2017-10-03T15:49:03.929Z,0.90
2017-10-03T15:51:30.246Z,0.73
2017-10-03T15:53:56.527Z,0.80
2017-10-03T15:56:23.638Z,0.60
2017-10-03T15:58:49.921Z,0.80
2017-10-03T16:01:16.249Z,0.90
2017-10-03T16:03:42.553Z,0.47
2017-10-03T16:06:09.868Z,0.60
2017-10-03T16:08:36.193Z,0.63
2017-10-03T16:11:02.493Z,0.83
2017-10-03T16:13:28.765Z,0.70
2017-10-03T16:15:55.095Z,0.80
2017-10-03T16:18:21.390Z,0.70
2017-10-03T16:20:47.658Z,1.07
2017-10-03T16:23:14.128Z,0.87
2017-10-03T16:25:40.439Z,0.77
2017-10-03T16:28:06.741Z,0.67
2017-10-03T16:30:34.538Z,1.93
2017-10-03T16:33:01.586Z,0.70
2017-10-03T16:35:28.601Z,0.90
2017-10-03T16:37:54.869Z,0.80
2017-10-03T16:40:21.928Z,1.43
2017-10-03T16:42:48.255Z,1.10
2017-10-03T16:45:14.557Z,0.90
2017-10-03T16:47:40.853Z,0.80
2017-10-03T16:50:07.141Z,0.93
2017-10-03T16:52:34.149Z,0.80
2017-10-03T16:55:00.480Z,1.07
2017-10-03T16:57:26.787Z,1.47
2017-10-03T16:59:53.081Z,1.27
2017-10-03T17:02:19.407Z,0.60
2017-10-03T17:04:46.442Z,1.17
2017-10-03T17:07:12.729Z,0.70
2017-10-03T17:09:39.035Z,1.00
2017-10-03T17:12:05.324Z,1.20
2017-10-03T17:14:31.595Z,0.90
2017-10-03T17:16:57.885Z,1.60
2017-10-03T17:19:24.912Z,0.87
2017-10-03T17:21:51.173Z,1.03
2017-10-03T17:24:18.206Z,0.87
2017-10-03T17:26:45.231Z,0.90
2017-10-03T17:29:11.513Z,1.30
2017-10-03T17:31:37.826Z,1.03
2017-10-03T17:34:04.117Z,0.70
2017-10-03T17:36:30.404Z,0.90
2017-10-03T17:38:56.705Z,1.20
2017-10-03T17:41:23.785Z,1.10
2017-10-03T17:43:50.093Z,1.07
2017-10-03T17:46:16.389Z,1.03
2017-10-03T17:48:42.689Z,1.73
2017-10-03T17:51:09.090Z,1.45
2017-10-03T17:53:35.365Z,1.25
2017-10-03T17:56:01.714Z,1.60
2017-10-03T17:58:28.012Z,1.30
2017-10-03T18:00:54.344Z,1.62
2017-10-03T18:03:20.679Z,2.05
2017-10-03T18:05:47.002Z,1.40
2017-10-03T18:08:13.290Z,1.70
2017-10-03T18:10:39.594Z,1.42
2017-10-03T18:13:06.640Z,1.52
2017-10-03T18:15:32.981Z,1.23
2017-10-03T18:18:00.030Z,1.33
2017-10-03T18:20:27.072Z,1.45
2017-10-03T18:22:54.102Z,1.35
2017-10-03T18:25:20.406Z,1.70
2017-10-03T18:27:46.732Z,2.40
2017-10-03T18:30:13.018Z,2.80
2017-10-03T18:32:40.083Z,2.03
2017-10-03T18:35:06.402Z,2.67
2017-10-03T18:37:32.677Z,2.40
2017-10-03T18:39:58.977Z,1.60
2017-10-03T18:42:25.336Z,1.70
2017-10-03T18:44:52.390Z,1.70
2017-10-03T18:47:18.665Z,1.87
2017-10-03T18:49:45.713Z,1.80
2017-10-03T18:52:11.993Z,4.70
2017-10-03T18:54:38.265Z,1.92
2017-10-03T18:57:05.333Z,1.55
2017-10-03T18:59:31.611Z,3.47
2017-10-03T19:01:57.894Z,1.77
2017-10-03T19:04:24.201Z,1.80
2017-10-03T19:06:51.233Z,2.20
2017-10-03T19:09:18.246Z,1.70
2017-10-03T19:11:44.583Z,2.45
2017-10-03T19:14:10.861Z,2.30
2017-10-03T19:16:37.135Z,2.25
2017-10-03T19:19:03.437Z,2.03
2017-10-03T19:21:29.717Z,2.28
2017-10-03T19:23:55.989Z,2.00
2017-10-03T19:26:22.277Z,2.20
2017-10-03T19:28:48.563Z,2.05
2017-10-03T19:31:14.858Z,2.60
2017-10-03T19:33:42.900Z,4.25
2017-10-03T19:36:09.961Z,5.87
2017-10-03T19:38:36.972Z,4.12
2017-10-03T19:41:03.273Z,2.75
2017-10-03T19:43:29.541Z,3.45
2017-10-03T19:45:55.850Z,2.50
2017-10-03T19:48:22.148Z,5.05
2017-10-03T19:50:48.453Z,14.32
2017-10-03T19:53:14.746Z,6.68
2017-10-03T19:55:41.045Z,42.40
2017-10-03T19:58:07.344Z,24.52
2017-10-03T20:00:34.366Z,6.80
2017-10-03T20:03:00.670Z,4.97
2017-10-03T20:05:26.943Z,4.22
2017-10-03T20:07:55.093Z,2.45
2017-10-03T20:10:21.398Z,2.70
2017-10-03T20:12:47.666Z,2.47
2017-10-03T20:15:13.941Z,3.00
2017-10-03T20:17:40.246Z,3.22
2017-10-03T20:20:07.268Z,2.90
2017-10-03T20:22:33.557Z,3.62
2017-10-03T20:24:59.850Z,2.78
2017-10-03T20:27:26.869Z,3.12
2017-10-03T20:29:53.140Z,2.70
2017-10-03T20:32:19.454Z,2.78
2017-10-03T20:34:46.481Z,3.08
2017-10-03T20:37:12.754Z,3.10
2017-10-03T20:39:39.046Z,2.72
2017-10-03T20:42:06.066Z,3.17
2017-10-03T20:44:32.334Z,2.20
2017-10-03T20:46:59.365Z,2.33
2017-10-03T20:49:25.634Z,2.80
2017-10-03T20:51:52.948Z,3.05
2017-10-03T20:54:19.983Z,2.70
2017-10-03T20:56:46.271Z,2.70
2017-10-03T20:59:12.541Z,3.00
2017-10-03T21:01:38.827Z,2.70
2017-10-03T21:04:05.097Z,2.65
2017-10-03T21:06:31.373Z,2.42
2017-10-03T21:08:57.665Z,2.47
2017-10-03T21:11:24.966Z,3.30
2017-10-03T21:13:52.274Z,3.35
2017-10-03T21:16:18.565Z,3.37
2017-10-03T21:18:44.837Z,3.67
2017-10-03T21:21:11.853Z,3.33
2017-10-03T21:23:38.173Z,2.92
2017-10-03T21:26:04.462Z,3.40
2017-10-03T21:28:30.738Z,3.28
2017-10-03T21:30:57.017Z,2.90
2017-10-03T21:33:23.282Z,3.22
2017-10-03T21:35:49.574Z,2.35
2017-10-03T21:38:15.871Z,2.30
2017-10-03T21:40:42.141Z,2.85
2017-10-03T21:43:10.363Z,2.78
2017-10-03T21:45:36.657Z,2.22
2017-10-03T21:48:02.978Z,2.90
2017-10-03T21:50:29.262Z,3.00
2017-10-03T21:52:55.556Z,2.90
2017-10-03T21:55:21.827Z,2.45
2017-10-03T21:57:48.102Z,2.25
2017-10-03T22:00:14.393Z,2.30
2017-10-03T22:02:41.413Z,2.45
2017-10-03T22:05:07.682Z,3.30
2017-10-03T22:07:34.746Z,2.62
2017-10-03T22:10:01.029Z,2.53
2017-10-03T22:12:27.350Z,3.60
2017-10-03T22:14:53.641Z,2.60
2017-10-03T22:17:19.899Z,3.17
2017-10-03T22:19:46.185Z,3.55
2017-10-03T22:22:12.474Z,3.10
2017-10-03T22:24:38.766Z,2.97
2017-10-03T22:27:05.050Z,2.70
2017-10-03T22:29:32.079Z,2.47
2017-10-03T22:31:58.366Z,2.40
2017-10-03T22:34:24.666Z,3.00
2017-10-03T22:36:52.698Z,2.60
2017-10-03T22:39:18.949Z,2.78
2017-10-03T22:41:45.218Z,3.25
2017-10-03T22:44:11.498Z,3.62
2017-10-03T22:46:37.770Z,3.80
2017-10-03T22:49:04.065Z,2.87
2017-10-03T22:51:36.330Z,2.62
2017-10-03T22:54:02.638Z,2.78
2017-10-03T22:56:28.897Z,2.75
2017-10-03T22:58:55.922Z,2.80
2017-10-03T23:01:22.181Z,3.35
2017-10-03T23:03:49.191Z,2.97
2017-10-03T23:06:15.483Z,3.40
2017-10-03T23:08:41.758Z,3.10
2017-10-03T23:11:08.792Z,3.80
2017-10-03T23:13:35.099Z,3.95
2017-10-03T23:16:01.377Z,3.15
2017-10-03T23:18:27.637Z,3.28
2017-10-03T23:20:53.929Z,3.10
2017-10-03T23:23:20.205Z,3.35
2017-10-03T23:25:46.474Z,2.70
2017-10-03T23:28:12.813Z,3.20
2017-10-03T23:30:39.086Z,3.00
2017-10-03T23:33:05.370Z,2.90
2017-10-03T23:35:31.662Z,2.80
2017-10-03T23:37:57.945Z,3.72
2017-10-03T23:40:24.951Z,3.22
2017-10-03T23:42:51.333Z,2.70
2017-10-03T23:45:18.429Z,2.33
2017-10-03T23:47:44.728Z,2.47
2017-10-03T23:50:11.020Z,2.30
2017-10-03T23:52:37.280Z,2.28
2017-10-03T23:55:03.546Z,2.33
2017-10-03T23:57:29.825Z,2.58
2017-10-03T23:59:56.841Z,2.40
